createdAt,value
2022-11-25T00:01:08.535Z,4.50
2022-11-25T00:03:36.096Z,3.80
2022-11-25T00:06:12.880Z,4.63
2022-11-25T00:08:40.971Z,3.93
2022-11-25T00:11:08.463Z,4.30
2022-11-25T00:13:36.397Z,3.77
2022-11-25T00:16:04.816Z,4.80
2022-11-25T00:18:32.342Z,5.13
2022-11-25T00:21:04.886Z,4.03
2022-11-25T00:23:33.479Z,4.00
2022-11-25T00:26:10.439Z,4.83
2022-11-25T00:28:37.935Z,4.30
2022-11-25T00:31:26.420Z,4.33
2022-11-25T00:33:53.737Z,4.10
2022-11-25T00:36:20.432Z,4.50
2022-11-25T00:38:47.920Z,4.30
2022-11-25T00:41:33.241Z,4.53
2022-11-25T00:44:18.560Z,3.80
2022-11-25T00:46:45.266Z,4.10
2022-11-25T00:49:12.047Z,3.53
2022-11-25T00:51:38.801Z,3.80
2022-11-25T00:54:05.691Z,4.43
2022-11-25T00:56:32.677Z,3.57
2022-11-25T00:58:59.833Z,4.77
2022-11-25T01:01:27.073Z,5.07
2022-11-25T01:03:54.128Z,4.90
2022-11-25T01:06:21.981Z,3.63
2022-11-25T01:08:49.296Z,4.10
2022-11-25T01:11:18.969Z,3.53
2022-11-25T01:13:46.011Z,4.30
2022-11-25T01:16:15.963Z,4.00
2022-11-25T01:18:43.318Z,4.20
2022-11-25T01:21:15.935Z,4.50
2022-11-25T01:23:43.512Z,3.87
2022-11-25T01:26:22.041Z,3.57
2022-11-25T01:28:52.906Z,4.37
2022-11-25T01:31:21.994Z,4.03
2022-11-25T01:33:53.763Z,3.87
2022-11-25T01:36:20.508Z,4.50
2022-11-25T01:38:52.331Z,3.73
2022-11-25T01:41:20.831Z,3.50
2022-11-25T01:44:11.765Z,3.93
2022-11-25T01:47:07.477Z,3.17
2022-11-25T01:49:50.994Z,4.20
2022-11-25T01:52:23.876Z,3.17
2022-11-25T01:55:05.193Z,5.20
2022-11-25T01:57:37.574Z,3.03
2022-11-25T02:00:06.174Z,3.60
2022-11-25T02:02:33.032Z,3.73
2022-11-25T02:05:04.136Z,3.37
2022-11-25T02:07:44.091Z,4.00
2022-11-25T02:10:20.038Z,2.97
2022-11-25T02:12:47.913Z,3.07
2022-11-25T02:15:16.293Z,3.50
2022-11-25T02:17:44.006Z,3.10
2022-11-25T02:20:19.437Z,3.63
2022-11-25T02:22:51.992Z,3.20
2022-11-25T02:25:26.299Z,3.23
2022-11-25T02:28:25.706Z,4.07
2022-11-25T02:30:52.655Z,3.87
2022-11-25T02:33:20.584Z,5.60
2022-11-25T02:35:49.986Z,5.03
2022-11-25T02:38:22.301Z,3.50
2022-11-25T02:41:19.795Z,4.00
2022-11-25T02:43:46.568Z,3.50
2022-11-25T02:46:21.588Z,3.10
2022-11-25T02:51:36.789Z,3.70
2022-11-25T02:54:03.784Z,4.23
2022-11-25T02:56:33.123Z,3.70
2022-11-25T02:59:00.161Z,3.40
2022-11-25T03:01:27.500Z,4.10
2022-11-25T03:03:54.279Z,3.40
2022-11-25T03:06:21.106Z,3.80
2022-11-25T03:08:47.808Z,3.27
2022-11-25T03:11:14.812Z,3.03
2022-11-25T03:13:41.529Z,3.10
2022-11-25T03:16:08.569Z,2.70
2022-11-25T03:18:35.618Z,4.50
2022-11-25T03:21:02.559Z,4.00
2022-11-25T03:23:29.364Z,3.33
2022-11-25T03:25:56.200Z,3.53
2022-11-25T03:28:23.296Z,3.73
2022-11-25T03:30:50.167Z,2.57
2022-11-25T03:33:16.991Z,3.00
2022-11-25T03:35:43.796Z,3.30
2022-11-25T03:38:10.566Z,3.43
2022-11-25T03:40:37.474Z,2.90
2022-11-25T03:43:05.268Z,3.07
2022-11-25T03:45:32.104Z,3.53
2022-11-25T03:47:58.979Z,3.70
2022-11-25T03:50:25.744Z,3.13
2022-11-25T03:52:52.454Z,3.53
2022-11-25T03:55:19.289Z,3.77
2022-11-25T03:57:46.076Z,4.00
2022-11-25T04:00:13.591Z,3.17
2022-11-25T04:02:40.338Z,3.67
2022-11-25T04:05:07.451Z,3.13
2022-11-25T04:07:34.246Z,3.70
2022-11-25T04:10:01.037Z,3.60
2022-11-25T04:12:46.465Z,3.50
2022-11-25T04:15:17.190Z,3.30
2022-11-25T04:17:44.171Z,3.87
2022-11-25T04:20:12.461Z,3.43
2022-11-25T04:22:39.229Z,3.67
2022-11-25T04:25:07.341Z,4.07
2022-11-25T04:27:34.110Z,3.47
2022-11-25T04:30:00.859Z,3.30
2022-11-25T04:32:27.871Z,4.13
2022-11-25T04:34:54.682Z,3.83
2022-11-25T04:37:21.747Z,3.57
2022-11-25T04:39:48.609Z,3.43
2022-11-25T04:42:41.401Z,3.23
2022-11-25T04:45:26.688Z,3.77
2022-11-25T04:47:53.476Z,3.70
2022-11-25T04:50:22.807Z,4.77
2022-11-25T04:52:49.746Z,3.40
2022-11-25T04:55:16.627Z,3.60
2022-11-25T04:57:43.322Z,3.70
2022-11-25T05:00:10.726Z,3.10
2022-11-25T05:02:37.574Z,3.73
2022-11-25T05:05:05.077Z,3.53
2022-11-25T05:07:32.069Z,3.67
2022-11-25T05:09:58.896Z,4.77
2022-11-25T05:12:28.911Z,4.70
2022-11-25T05:14:56.470Z,3.80
2022-11-25T05:17:29.556Z,4.50
2022-11-25T05:19:56.812Z,3.87
2022-11-25T05:22:26.416Z,3.97
2022-11-25T05:24:53.237Z,3.83
2022-11-25T05:27:20.949Z,4.23
2022-11-25T05:29:52.831Z,3.20
2022-11-25T05:32:22.384Z,4.20
2022-11-25T05:34:49.117Z,4.17
2022-11-25T05:37:18.773Z,4.53
2022-11-25T05:39:49.505Z,4.47
2022-11-25T05:42:16.286Z,3.87
2022-11-25T05:44:42.992Z,4.50
2022-11-25T05:47:09.710Z,4.00
2022-11-25T05:49:36.482Z,4.03
2022-11-25T05:52:03.308Z,3.87
2022-11-25T05:54:30.093Z,4.53
2022-11-25T05:56:56.795Z,4.27
2022-11-25T05:59:23.578Z,3.27
2022-11-25T06:01:53.565Z,4.40
2022-11-25T06:04:20.263Z,4.60
2022-11-25T06:06:46.979Z,4.73
2022-11-25T06:09:13.713Z,3.67
2022-11-25T06:11:40.405Z,4.57
2022-11-25T06:14:07.112Z,4.13
2022-11-25T06:16:33.916Z,4.37
2022-11-25T06:19:05.487Z,4.00
2022-11-25T06:21:32.821Z,4.47
2022-11-25T06:23:59.625Z,3.57
2022-11-25T06:26:26.558Z,4.00
2022-11-25T06:28:55.301Z,3.90
2022-11-25T06:31:24.848Z,4.43
2022-11-25T06:33:52.684Z,3.67
2022-11-25T06:36:20.760Z,4.60
2022-11-25T06:38:50.199Z,3.57
2022-11-25T06:41:17.576Z,5.23
2022-11-25T06:43:44.458Z,3.87
2022-11-25T06:46:14.002Z,3.73
2022-11-25T06:48:41.082Z,4.97
2022-11-25T06:51:11.115Z,3.93
2022-11-25T06:53:38.300Z,3.97
2022-11-25T06:56:18.355Z,4.37
2022-11-25T06:58:46.504Z,3.87
2022-11-25T07:01:20.337Z,4.03
2022-11-25T07:03:50.403Z,4.20
2022-11-25T07:06:19.832Z,4.03
2022-11-25T07:08:47.685Z,3.63
2022-11-25T07:11:21.993Z,3.23
2022-11-25T07:13:52.541Z,4.37
2022-11-25T07:16:19.354Z,3.83
2022-11-25T07:18:46.193Z,5.10
2022-11-25T07:24:11.273Z,3.87
2022-11-25T07:26:39.440Z,3.83
2022-11-25T07:29:23.481Z,4.43
2022-11-25T07:31:56.888Z,3.23
2022-11-25T07:34:23.627Z,3.47
2022-11-25T07:36:50.989Z,4.70
2022-11-25T07:39:20.921Z,3.83
2022-11-25T07:41:54.802Z,3.37
2022-11-25T07:44:22.046Z,3.93
2022-11-25T07:46:50.191Z,3.13
2022-11-25T07:49:20.738Z,3.80
2022-11-25T07:51:53.785Z,3.60
2022-11-25T07:54:21.516Z,3.30
2022-11-25T07:56:49.766Z,3.83
2022-11-25T07:59:19.202Z,3.03
2022-11-25T08:01:46.283Z,3.97
2022-11-25T08:04:19.803Z,3.27
2022-11-25T08:06:48.438Z,2.60
2022-11-25T08:09:19.477Z,3.13
2022-11-25T08:11:47.285Z,3.73
2022-11-25T08:14:14.801Z,3.90
2022-11-25T08:16:41.917Z,3.70
2022-11-25T08:19:11.625Z,5.73
2022-11-25T08:21:38.352Z,3.83
2022-11-25T08:24:05.537Z,3.47
2022-11-25T08:26:38.354Z,3.87
2022-11-25T08:29:06.741Z,4.20
2022-11-25T08:31:36.252Z,3.40
2022-11-25T08:34:04.721Z,3.90
2022-11-25T08:36:32.242Z,3.93
2022-11-25T08:39:00.692Z,2.97
2022-11-25T08:41:36.773Z,3.27
2022-11-25T08:44:07.083Z,3.57
2022-11-25T08:46:36.638Z,3.23
2022-11-25T08:49:09.059Z,3.70
2022-11-25T08:51:37.092Z,3.47
2022-11-25T08:54:05.289Z,4.37
2022-11-25T08:56:32.400Z,3.63
2022-11-25T08:59:00.139Z,3.40
2022-11-25T09:01:27.479Z,4.20
2022-11-25T09:03:55.671Z,3.13
2022-11-25T09:06:25.235Z,2.80
2022-11-25T09:08:56.020Z,3.13
2022-11-25T09:11:23.099Z,3.53
2022-11-25T09:13:50.000Z,2.90
2022-11-25T09:16:16.841Z,3.27
2022-11-25T09:18:43.726Z,3.43
2022-11-25T09:21:14.531Z,3.17
2022-11-25T09:23:41.388Z,2.50
2022-11-25T09:26:19.453Z,2.73
2022-11-25T09:28:46.224Z,3.07
2022-11-25T09:31:13.036Z,2.70
2022-11-25T09:33:39.816Z,3.10
2022-11-25T09:36:06.912Z,2.43
2022-11-25T09:38:34.880Z,3.20
2022-11-25T09:41:15.106Z,2.80
2022-11-25T09:44:29.781Z,3.60
2022-11-25T09:47:07.492Z,3.17
2022-11-25T09:49:55.825Z,3.40
2022-11-25T09:52:37.312Z,3.87
2022-11-25T09:55:13.580Z,3.03
2022-11-25T09:57:57.916Z,2.83
2022-11-25T10:00:36.323Z,3.00
2022-11-25T10:03:06.831Z,3.00
2022-11-25T10:05:41.580Z,3.27
2022-11-25T10:08:31.499Z,3.07
2022-11-25T10:11:17.014Z,3.10
2022-11-25T10:14:24.919Z,2.50
2022-11-25T10:16:58.931Z,3.97
2022-11-25T10:19:43.916Z,4.30
2022-11-25T10:22:23.316Z,3.13
2022-11-25T10:24:53.393Z,2.83
2022-11-25T10:27:52.833Z,3.57
2022-11-25T10:30:44.207Z,2.87
2022-11-25T10:33:27.411Z,3.10
2022-11-25T10:35:57.459Z,2.97
2022-11-25T10:38:41.440Z,3.90
2022-11-25T10:41:17.425Z,3.00
2022-11-25T10:43:46.891Z,3.33
2022-11-25T10:47:11.182Z,3.77
2022-11-25T10:49:35.521Z,2.73
2022-11-25T10:52:02.282Z,2.60
2022-11-25T10:54:29.779Z,3.63
2022-11-25T10:56:57.746Z,3.87
2022-11-25T10:59:34.160Z,3.20
2022-11-25T11:02:22.163Z,2.70
2022-11-25T11:04:56.925Z,2.80
2022-11-25T11:07:24.896Z,2.37
2022-11-25T11:09:52.281Z,3.27
2022-11-25T11:12:29.307Z,3.07
2022-11-25T11:15:55.095Z,2.90
2022-11-25T11:18:36.191Z,3.23
2022-11-25T11:21:05.268Z,2.83
2022-11-25T11:23:54.083Z,3.63
2022-11-25T11:26:31.980Z,2.70
2022-11-25T11:29:21.167Z,3.73
2022-11-25T11:31:55.713Z,2.93
2022-11-25T11:34:37.780Z,3.17
2022-11-25T11:37:33.670Z,3.97
2022-11-25T11:40:23.166Z,3.40
2022-11-25T11:43:16.152Z,3.10
2022-11-25T11:46:11.338Z,2.83
2022-11-25T11:48:48.668Z,3.37
2022-11-25T11:51:18.471Z,3.97
2022-11-25T11:54:03.345Z,3.23
2022-11-25T12:09:32.141Z,4.27
2022-11-25T12:12:04.478Z,3.67
2022-11-25T12:14:42.116Z,3.30
2022-11-25T12:17:46.952Z,3.10
2022-11-25T12:20:41.268Z,3.30
2022-11-25T12:23:36.181Z,3.40
2022-11-25T12:26:09.261Z,2.80
2022-11-25T12:29:09.581Z,2.90
2022-11-25T12:31:49.811Z,3.20
2022-11-25T12:34:34.280Z,3.63
2022-11-25T12:37:23.175Z,3.40
2022-11-25T12:40:03.432Z,3.37
2022-11-25T12:42:32.734Z,3.43
2022-11-25T12:45:11.266Z,3.63
2022-11-25T12:47:38.055Z,4.37
2022-11-25T12:50:05.280Z,3.50
2022-11-25T12:53:13.623Z,3.73
2022-11-25T12:55:41.530Z,3.57
2022-11-25T12:58:36.571Z,3.37
2022-11-25T13:01:28.529Z,3.47
2022-11-25T13:04:29.594Z,3.53
2022-11-25T13:07:04.836Z,3.83
2022-11-25T13:09:55.478Z,3.37
2022-11-25T13:12:39.545Z,3.47
2022-11-25T13:15:25.224Z,3.27
2022-11-25T13:17:57.422Z,3.40
2022-11-25T13:20:27.042Z,4.20
2022-11-25T13:23:24.210Z,2.97
2022-11-25T13:26:11.781Z,3.57
2022-11-25T13:28:38.597Z,2.97
2022-11-25T13:31:14.201Z,3.43
2022-11-25T13:33:44.426Z,3.53
2022-11-25T13:36:23.698Z,3.27
2022-11-25T13:38:50.485Z,3.37
2022-11-25T13:41:20.283Z,3.07
2022-11-25T13:44:14.770Z,3.30
2022-11-25T13:46:43.295Z,3.67
2022-11-25T13:49:36.316Z,3.03
2022-11-25T13:52:12.589Z,3.37
2022-11-25T13:54:49.961Z,3.53
2022-11-25T13:57:30.361Z,3.03
2022-11-25T14:00:04.629Z,2.77
2022-11-25T14:02:38.245Z,3.13
2022-11-25T14:05:38.861Z,3.70
2022-11-25T14:08:38.183Z,2.90
2022-11-25T14:11:10.870Z,3.03
2022-11-25T14:13:40.305Z,3.23
2022-11-25T14:16:16.283Z,3.30
2022-11-25T14:19:51.606Z,3.00
2022-11-25T14:22:40.641Z,2.93
2022-11-25T14:25:22.503Z,3.40
2022-11-25T14:27:57.315Z,3.97
2022-11-25T14:30:28.617Z,3.03
2022-11-25T14:33:11.645Z,3.30
2022-11-25T14:35:48.029Z,3.20
2022-11-25T14:38:35.128Z,3.37
2022-11-25T14:41:13.421Z,3.67
2022-11-25T14:43:45.093Z,3.50
2022-11-25T14:46:22.756Z,3.23
2022-11-25T14:48:57.806Z,4.23
2022-11-25T14:51:27.139Z,3.67
2022-11-25T14:53:54.608Z,2.97
2022-11-25T14:56:30.570Z,3.60
2022-11-25T14:58:59.027Z,3.80
2022-11-25T15:01:28.340Z,4.37
2022-11-25T15:04:17.484Z,3.57
2022-11-25T15:06:53.362Z,4.27
2022-11-25T15:09:29.228Z,4.97
2022-11-25T15:12:14.325Z,3.80
2022-11-25T15:14:48.880Z,4.07
2022-11-25T15:17:37.421Z,3.67
2022-11-25T15:20:13.015Z,3.93
2022-11-25T15:22:45.254Z,4.13
2022-11-25T15:25:15.870Z,3.67
2022-11-25T15:27:49.615Z,3.33
2022-11-25T15:30:23.626Z,4.07
2022-11-25T15:32:50.957Z,3.20
2022-11-25T15:35:21.368Z,3.87
2022-11-25T15:37:49.402Z,3.67
2022-11-25T15:40:39.530Z,4.40
2022-11-25T15:43:20.312Z,3.70
2022-11-25T15:45:50.319Z,3.90
2022-11-25T15:48:40.342Z,3.83
2022-11-25T15:51:27.965Z,3.63
2022-11-25T15:54:00.935Z,3.80
2022-11-25T15:56:28.196Z,3.90
2022-11-25T15:59:00.165Z,5.13
2022-11-25T16:01:29.355Z,4.30
2022-11-25T16:04:12.363Z,4.80
2022-11-25T16:06:59.786Z,4.83
2022-11-25T16:09:28.707Z,5.13
2022-11-25T16:12:06.193Z,4.77
2022-11-25T16:14:37.266Z,4.63
2022-11-25T16:17:09.493Z,4.67
2022-11-25T16:19:42.513Z,4.50
2022-11-25T16:22:14.891Z,5.27
2022-11-25T16:24:53.036Z,4.73
2022-11-25T16:27:27.975Z,4.53
2022-11-25T16:30:06.301Z,4.77
2022-11-25T16:32:33.491Z,3.83
2022-11-25T16:35:23.421Z,4.17
2022-11-25T16:37:50.197Z,4.33
2022-11-25T16:40:18.875Z,4.20
2022-11-25T16:42:48.495Z,4.90
2022-11-25T16:45:21.137Z,4.93
2022-11-25T16:47:47.893Z,5.93
2022-11-25T16:50:16.376Z,6.07
2022-11-25T16:52:43.460Z,5.07
2022-11-25T16:55:11.219Z,5.07
2022-11-25T16:57:40.412Z,5.53
2022-11-25T17:00:17.455Z,4.47
2022-11-25T17:02:45.066Z,3.93
2022-11-25T17:05:23.911Z,4.73
2022-11-25T17:07:51.712Z,4.00
2022-11-25T17:10:20.126Z,4.47
2022-11-25T17:12:47.842Z,5.07
2022-11-25T17:15:32.307Z,5.13
2022-11-25T17:18:00.984Z,5.60
2022-11-25T17:20:28.004Z,7.17
2022-11-25T17:22:55.255Z,5.50
2022-11-25T17:25:24.088Z,6.30
2022-11-25T17:27:51.550Z,5.67
2022-11-25T17:30:28.585Z,5.87
2022-11-25T17:33:07.734Z,4.60
2022-11-25T17:35:35.177Z,5.10
2022-11-25T17:38:02.024Z,4.70
2022-11-25T17:40:28.873Z,4.70
2022-11-25T17:42:55.840Z,4.47
2022-11-25T17:45:22.750Z,5.17
2022-11-25T17:47:49.832Z,4.07
2022-11-25T17:50:25.259Z,4.97
2022-11-25T17:52:52.813Z,4.63
2022-11-25T17:55:21.943Z,5.73
2022-11-25T17:57:50.096Z,5.97
2022-11-25T18:00:20.276Z,4.33
2022-11-25T18:02:47.178Z,4.33
2022-11-25T18:05:24.531Z,4.50
2022-11-25T18:07:52.333Z,5.37
2022-11-25T18:10:22.426Z,4.37
2022-11-25T18:12:53.172Z,4.47
2022-11-25T18:15:26.081Z,3.60
2022-11-25T18:18:06.911Z,4.70
2022-11-25T18:20:34.319Z,5.13
2022-11-25T18:23:01.235Z,6.40
2022-11-25T18:25:31.595Z,4.83
2022-11-25T18:28:00.013Z,4.50
2022-11-25T18:30:29.565Z,5.53
2022-11-25T18:32:57.479Z,5.13
2022-11-25T18:35:31.124Z,4.53
2022-11-25T18:38:02.526Z,4.77
2022-11-25T18:40:29.911Z,5.10
2022-11-25T18:43:00.386Z,5.17
2022-11-25T18:45:38.518Z,5.00
2022-11-25T18:48:17.476Z,5.40
2022-11-25T18:50:45.962Z,5.13
2022-11-25T18:53:15.044Z,5.50
2022-11-25T18:55:42.502Z,5.27
2022-11-25T18:58:18.436Z,6.00
2022-11-25T19:00:49.947Z,4.37
2022-11-25T19:03:20.106Z,5.70
2022-11-25T19:05:47.187Z,5.90
2022-11-25T19:08:14.654Z,4.53
2022-11-25T19:10:43.871Z,5.93
2022-11-25T19:13:20.646Z,4.83
2022-11-25T19:15:48.671Z,4.97
2022-11-25T19:18:22.957Z,4.93
2022-11-25T19:20:49.725Z,5.57
2022-11-25T19:23:25.375Z,5.13
2022-11-25T19:25:54.913Z,5.03
2022-11-25T19:28:23.843Z,5.40
2022-11-25T19:30:57.147Z,5.53
2022-11-25T19:33:38.976Z,5.33
2022-11-25T19:36:11.851Z,5.13
2022-11-25T19:38:38.986Z,5.10
2022-11-25T19:41:05.962Z,5.13
2022-11-25T19:43:32.739Z,4.70
2022-11-25T19:45:59.660Z,4.57
2022-11-25T19:48:35.950Z,4.97
2022-11-25T19:51:04.834Z,5.17
2022-11-25T19:53:34.155Z,5.13
2022-11-25T19:56:04.788Z,4.90
2022-11-25T19:58:31.910Z,5.00
2022-11-25T20:01:03.350Z,5.23
2022-11-25T20:03:31.734Z,6.40
2022-11-25T20:05:58.865Z,5.37
2022-11-25T20:08:27.845Z,6.20
2022-11-25T20:10:55.956Z,5.10
2022-11-25T20:13:23.698Z,5.80
2022-11-25T20:15:51.074Z,4.87
2022-11-25T20:18:21.420Z,5.40
2022-11-25T20:20:56.065Z,5.70
2022-11-25T20:23:29.882Z,5.33
2022-11-25T20:25:56.772Z,5.10
2022-11-25T20:28:26.586Z,4.87
2022-11-25T20:30:56.362Z,5.30
2022-11-25T20:33:24.892Z,4.77
2022-11-25T20:36:03.746Z,5.20
2022-11-25T20:38:32.466Z,4.43
2022-11-25T20:41:00.347Z,4.70
2022-11-25T20:43:27.037Z,4.93
2022-11-25T20:45:55.376Z,5.20
2022-11-25T20:48:23.021Z,5.23
2022-11-25T20:50:50.432Z,7.60
2022-11-25T20:53:20.143Z,5.97
2022-11-25T20:55:48.668Z,6.30
2022-11-25T20:58:28.370Z,6.37
2022-11-25T21:00:57.687Z,5.97
2022-11-25T21:03:25.425Z,6.07
2022-11-25T21:05:53.611Z,6.17
2022-11-25T21:08:23.226Z,5.93
2022-11-25T21:10:53.241Z,5.87
2022-11-25T21:13:30.155Z,6.93
2022-11-25T21:15:57.755Z,6.30
2022-11-25T21:18:25.234Z,7.10
2022-11-25T21:20:55.205Z,6.23
2022-11-25T21:23:29.218Z,5.57
2022-11-25T21:26:11.885Z,4.63
2022-11-25T21:28:42.423Z,4.50
2022-11-25T21:31:17.746Z,5.60
2022-11-25T21:33:48.605Z,4.77
2022-11-25T21:36:20.583Z,6.30
2022-11-25T21:38:49.934Z,5.63
2022-11-25T21:41:16.976Z,4.63
2022-11-25T21:43:46.270Z,5.10
2022-11-25T21:46:18.296Z,6.00
2022-11-25T21:48:45.398Z,5.60
2022-11-25T21:51:14.931Z,5.23
2022-11-25T21:53:41.933Z,4.87
2022-11-25T21:56:17.313Z,4.77
2022-11-25T21:58:44.425Z,6.37
2022-11-25T22:01:13.155Z,5.83
2022-11-25T22:03:40.146Z,5.67
2022-11-25T22:06:24.748Z,4.60
2022-11-25T22:08:52.014Z,5.20
2022-11-25T22:11:21.949Z,4.97
2022-11-25T22:13:49.712Z,4.83
2022-11-25T22:16:20.853Z,4.67
2022-11-25T22:18:47.734Z,5.03
2022-11-25T22:21:15.132Z,4.70
2022-11-25T22:23:42.793Z,5.50
2022-11-25T22:26:26.159Z,5.43
2022-11-25T22:28:53.739Z,4.53
2022-11-25T22:31:22.173Z,4.83
2022-11-25T22:33:49.282Z,5.50
2022-11-25T22:36:36.497Z,4.13
2022-11-25T22:39:18.821Z,4.40
2022-11-25T22:42:02.575Z,4.10
2022-11-25T22:44:45.775Z,4.13
2022-11-25T22:47:24.515Z,4.80
2022-11-25T22:49:52.755Z,5.27
2022-11-25T22:52:28.703Z,4.80
2022-11-25T22:54:58.186Z,4.37
2022-11-25T22:57:25.080Z,4.97
2022-11-25T22:59:51.853Z,4.70
2022-11-25T23:02:26.644Z,4.57
2022-11-25T23:04:55.620Z,4.13
2022-11-25T23:07:23.783Z,3.97
2022-11-25T23:09:51.583Z,4.30
2022-11-25T23:12:18.905Z,4.37
2022-11-25T23:14:46.131Z,4.20
2022-11-25T23:17:24.348Z,3.87
2022-11-25T23:19:52.371Z,3.53
2022-11-25T23:22:20.071Z,3.50
2022-11-25T23:24:48.545Z,4.97
2022-11-25T23:27:16.095Z,4.13
2022-11-25T23:29:42.887Z,3.30
2022-11-25T23:32:20.991Z,4.27
2022-11-25T23:34:50.261Z,4.63
2022-11-25T23:37:17.263Z,3.67
2022-11-25T23:39:48.823Z,4.20
2022-11-25T23:42:17.838Z,4.07
2022-11-25T23:44:44.650Z,4.63
2022-11-25T23:47:18.630Z,4.20
2022-11-25T23:49:48.777Z,3.87
2022-11-25T23:52:21.439Z,3.53
2022-11-25T23:54:49.682Z,4.20
2022-11-25T23:57:18.713Z,4.13
2022-11-25T23:59:46.948Z,4.20
